createdAt,value
2023-03-03T00:00:26.000Z,3.4
2023-03-03T00:01:42.000Z,3.1
2023-03-03T00:02:59.000Z,3.3
2023-03-03T00:04:15.000Z,3
2023-03-03T00:05:31.000Z,3
2023-03-03T00:06:47.000Z,3.2
2023-03-03T00:08:03.000Z,3.5
2023-03-03T00:09:20.000Z,3.4
2023-03-03T00:10:36.000Z,3.3
2023-03-03T00:11:52.000Z,3.3
2023-03-03T00:13:08.000Z,3.2
2023-03-03T00:14:23.000Z,3.3
2023-03-03T00:15:39.000Z,3.4
2023-03-03T00:16:56.000Z,3.4
2023-03-03T00:18:12.000Z,3.5
2023-03-03T00:19:28.000Z,3.4
2023-03-03T00:20:44.000Z,3.5
2023-03-03T00:22:00.000Z,3.5
2023-03-03T00:23:17.000Z,3.5
2023-03-03T00:24:33.000Z,3.5
2023-03-03T00:25:49.000Z,3.7
2023-03-03T00:27:05.000Z,3.7
2023-03-03T00:28:21.000Z,3.8
2023-03-03T00:29:38.000Z,3.6
2023-03-03T00:30:53.000Z,3.8
2023-03-03T00:32:09.000Z,3.9
2023-03-03T00:33:25.000Z,3.1
2023-03-03T00:34:41.000Z,3.2
2023-03-03T00:35:58.000Z,3.3
2023-03-03T00:37:14.000Z,3
2023-03-03T00:38:30.000Z,2.8
2023-03-03T00:39:46.000Z,3.2
2023-03-03T00:41:02.000Z,3.3
2023-03-03T00:42:19.000Z,3.3
2023-03-03T00:43:35.000Z,3.5
2023-03-03T00:44:51.000Z,3.6
2023-03-03T00:46:07.000Z,3.3
2023-03-03T00:47:22.000Z,3.2
2023-03-03T00:48:38.000Z,3.2
2023-03-03T00:49:55.000Z,3.5
2023-03-03T00:51:11.000Z,3.5
2023-03-03T00:52:27.000Z,3.3
2023-03-03T00:53:43.000Z,3.1
2023-03-03T00:54:59.000Z,2.9
2023-03-03T00:56:16.000Z,2.9
2023-03-03T00:57:32.000Z,3
2023-03-03T00:58:48.000Z,3.1
2023-03-03T01:00:04.000Z,2.9
2023-03-03T01:01:20.000Z,3
2023-03-03T01:02:37.000Z,3.3
2023-03-03T01:03:52.000Z,3.6
2023-03-03T01:05:08.000Z,3.4
2023-03-03T01:06:24.000Z,3.5
2023-03-03T01:07:40.000Z,3.3
2023-03-03T01:08:57.000Z,3.4
2023-03-03T01:10:13.000Z,3.7
2023-03-03T01:11:29.000Z,4
2023-03-03T01:12:45.000Z,4.1
2023-03-03T01:14:01.000Z,3.8
2023-03-03T01:15:17.000Z,3.3
2023-03-03T01:16:34.000Z,3.2
2023-03-03T01:17:50.000Z,3.4
2023-03-03T01:19:06.000Z,3.7
2023-03-03T01:20:21.000Z,3.8
2023-03-03T01:21:37.000Z,4
2023-03-03T01:22:54.000Z,3.7
2023-03-03T01:24:10.000Z,3.7
2023-03-03T01:25:26.000Z,3.6
2023-03-03T01:26:42.000Z,3.7
2023-03-03T01:27:58.000Z,3.6
2023-03-03T01:29:15.000Z,3.5
2023-03-03T01:30:31.000Z,3.7
2023-03-03T01:31:47.000Z,3.7
2023-03-03T01:33:03.000Z,3.8
2023-03-03T01:34:19.000Z,3.7
2023-03-03T01:35:36.000Z,3.9
2023-03-03T01:36:51.000Z,3.7
2023-03-03T01:38:07.000Z,3.7
2023-03-03T01:39:23.000Z,3.6
2023-03-03T01:40:39.000Z,3.7
2023-03-03T01:41:56.000Z,4
2023-03-03T01:43:12.000Z,3.6
2023-03-03T01:44:28.000Z,3.5
2023-03-03T01:45:44.000Z,3.3
2023-03-03T01:47:00.000Z,3.1
2023-03-03T01:48:16.000Z,3
2023-03-03T01:49:33.000Z,3.2
2023-03-03T01:50:49.000Z,3.1
2023-03-03T01:52:05.000Z,3
2023-03-03T01:53:20.000Z,3
2023-03-03T01:54:36.000Z,2.9
2023-03-03T01:55:53.000Z,3
2023-03-03T01:57:09.000Z,3.1
2023-03-03T01:58:25.000Z,3.2
2023-03-03T01:59:41.000Z,3.4
2023-03-03T02:00:57.000Z,3.7
2023-03-03T02:02:14.000Z,3.7
2023-03-03T02:03:30.000Z,3.8
2023-03-03T02:04:46.000Z,3.7
2023-03-03T02:06:02.000Z,3.6
2023-03-03T02:07:18.000Z,3.6
2023-03-03T02:08:35.000Z,3.5
2023-03-03T02:09:50.000Z,3.3
2023-03-03T02:11:06.000Z,3.5
2023-03-03T02:12:22.000Z,3.5
2023-03-03T02:13:38.000Z,3.3
2023-03-03T02:14:55.000Z,3.4
2023-03-03T02:16:11.000Z,3.7
2023-03-03T02:17:27.000Z,3.5
2023-03-03T02:18:43.000Z,3.3
2023-03-03T02:19:59.000Z,3.4
2023-03-03T02:21:15.000Z,3.8
2023-03-03T02:22:32.000Z,3.5
2023-03-03T02:23:48.000Z,3.2
2023-03-03T02:25:04.000Z,3.1
2023-03-03T02:26:19.000Z,3.1
2023-03-03T02:27:35.000Z,3.3
2023-03-03T02:28:52.000Z,3.1
2023-03-03T02:30:08.000Z,3.3
2023-03-03T02:31:24.000Z,3.2
2023-03-03T02:32:40.000Z,3.3
2023-03-03T02:33:56.000Z,3.3
2023-03-03T02:35:13.000Z,3.2
2023-03-03T02:36:29.000Z,3.4
2023-03-03T02:37:45.000Z,3.6
2023-03-03T02:39:01.000Z,3.9
2023-03-03T02:40:17.000Z,3.8
2023-03-03T02:41:34.000Z,3.9
2023-03-03T02:42:49.000Z,3.7
2023-03-03T02:44:05.000Z,3.6
2023-03-03T02:45:21.000Z,3.6
2023-03-03T02:46:37.000Z,3.5
2023-03-03T02:47:54.000Z,3.4
2023-03-03T02:49:10.000Z,3.8
2023-03-03T02:50:26.000Z,4
2023-03-03T02:51:42.000Z,4.1
2023-03-03T02:52:58.000Z,4
2023-03-03T02:54:14.000Z,4
2023-03-03T02:55:31.000Z,3.8
2023-03-03T02:56:47.000Z,3.9
2023-03-03T02:58:03.000Z,3.8
2023-03-03T02:59:18.000Z,3.8
2023-03-03T03:00:34.000Z,4
2023-03-03T03:01:51.000Z,3.9
2023-03-03T03:03:07.000Z,3.7
2023-03-03T03:04:23.000Z,3.5
2023-03-03T03:05:39.000Z,3.5
2023-03-03T03:06:54.000Z,3.7
2023-03-03T03:08:11.000Z,3.4
2023-03-03T03:09:27.000Z,3.4
2023-03-03T03:10:43.000Z,3.2
2023-03-03T03:11:59.000Z,3.1
2023-03-03T03:13:15.000Z,3.1
2023-03-03T03:14:32.000Z,3.4
2023-03-03T03:15:48.000Z,3.2
2023-03-03T03:17:04.000Z,3.1
2023-03-03T03:18:20.000Z,3.2
2023-03-03T03:19:36.000Z,3.2
2023-03-03T03:20:53.000Z,3.1
2023-03-03T03:22:09.000Z,3.3
2023-03-03T03:23:24.000Z,3.6
2023-03-03T03:24:40.000Z,3.7
2023-03-03T03:25:56.000Z,3.6
2023-03-03T03:27:12.000Z,3.6
2023-03-03T03:28:29.000Z,3.7
2023-03-03T03:29:45.000Z,3.8
2023-03-03T03:31:01.000Z,3.7
2023-03-03T03:32:17.000Z,3.8
2023-03-03T03:33:33.000Z,3.9
2023-03-03T03:34:50.000Z,3.5
2023-03-03T03:36:06.000Z,3.4
2023-03-03T03:37:22.000Z,3.2
2023-03-03T03:38:38.000Z,3.2
2023-03-03T03:39:53.000Z,3.3
2023-03-03T03:41:10.000Z,3.4
2023-03-03T03:42:26.000Z,3.6
2023-03-03T03:43:42.000Z,3.7
2023-03-03T03:44:58.000Z,3.3
2023-03-03T03:46:14.000Z,3.3
2023-03-03T03:47:31.000Z,3.4
2023-03-03T03:48:47.000Z,3.3
2023-03-03T03:50:03.000Z,3.2
2023-03-03T03:51:19.000Z,3.3
2023-03-03T03:52:35.000Z,3.6
2023-03-03T03:53:51.000Z,3.7
2023-03-03T03:55:08.000Z,3.3
2023-03-03T03:56:23.000Z,3.1
2023-03-03T03:57:39.000Z,3
2023-03-03T03:58:55.000Z,3.3
2023-03-03T04:00:11.000Z,3.4
2023-03-03T04:01:28.000Z,3.3
2023-03-03T04:02:44.000Z,3.2
2023-03-03T04:04:00.000Z,3.2
2023-03-03T04:05:16.000Z,3.1
2023-03-03T04:06:32.000Z,2.9
2023-03-03T04:07:49.000Z,2.9
2023-03-03T04:09:05.000Z,3
2023-03-03T04:10:21.000Z,3.1
2023-03-03T04:11:37.000Z,3.1
2023-03-03T04:12:52.000Z,3.4
2023-03-03T04:14:09.000Z,3.6
2023-03-03T04:15:25.000Z,3.7
2023-03-03T04:16:41.000Z,3.6
2023-03-03T04:17:57.000Z,3.7
2023-03-03T04:19:13.000Z,3.6
2023-03-03T04:20:30.000Z,3.5
2023-03-03T04:21:46.000Z,3.6
2023-03-03T04:23:02.000Z,3.3
2023-03-03T04:24:18.000Z,3.4
2023-03-03T04:25:34.000Z,3.1
2023-03-03T04:26:50.000Z,2.8
2023-03-03T04:28:07.000Z,2.9
2023-03-03T04:29:22.000Z,2.8
2023-03-03T04:30:38.000Z,2.9
2023-03-03T04:31:54.000Z,3.1
2023-03-03T04:33:10.000Z,2.8
2023-03-03T04:34:27.000Z,2.9
2023-03-03T04:35:43.000Z,3
2023-03-03T04:36:59.000Z,2.8
2023-03-03T04:38:15.000Z,2.6
2023-03-03T04:39:31.000Z,2.6
2023-03-03T04:40:48.000Z,2.6
2023-03-03T04:42:04.000Z,2.9
2023-03-03T04:43:20.000Z,2.9
2023-03-03T04:44:36.000Z,2.8
2023-03-03T04:45:51.000Z,2.9
2023-03-03T04:47:08.000Z,3.2
2023-03-03T04:48:24.000Z,3.2
2023-03-03T04:49:40.000Z,3.2
2023-03-03T04:50:56.000Z,3
2023-03-03T04:52:12.000Z,3.2
2023-03-03T04:53:29.000Z,3.1
2023-03-03T04:54:45.000Z,3.1
2023-03-03T04:56:01.000Z,3.1
2023-03-03T05:36:40.000Z,40
2023-03-03T05:37:57.000Z,40
2023-03-03T05:39:13.000Z,40
2023-03-03T05:40:29.000Z,40
2023-03-03T05:41:45.000Z,40
2023-03-03T05:43:01.000Z,40
2023-03-03T05:44:18.000Z,40
2023-03-03T05:45:34.000Z,40
2023-03-03T05:46:50.000Z,40
2023-03-03T05:48:06.000Z,40
2023-03-03T05:49:22.000Z,40
2023-03-03T05:50:39.000Z,40
2023-03-03T05:51:55.000Z,40
2023-03-03T05:53:11.000Z,40
2023-03-03T05:54:27.000Z,40
2023-03-03T05:55:43.000Z,40
2023-03-03T05:56:59.000Z,40
2023-03-03T05:58:16.000Z,40
2023-03-03T05:59:32.000Z,40
2023-03-03T06:00:48.000Z,40
2023-03-03T06:02:03.000Z,1.1
2023-03-03T06:03:18.000Z,1.3
2023-03-03T06:04:35.000Z,1.4
2023-03-03T06:05:51.000Z,1.5
2023-03-03T06:07:07.000Z,1.5
2023-03-03T06:08:23.000Z,1.6
2023-03-03T06:09:39.000Z,1.6
2023-03-03T06:10:56.000Z,1.5
2023-03-03T06:12:12.000Z,1.5
2023-03-03T06:13:28.000Z,1.5
2023-03-03T06:14:44.000Z,1.4
2023-03-03T06:16:00.000Z,1.4
2023-03-03T06:17:17.000Z,1.4
2023-03-03T06:18:33.000Z,1.4
2023-03-03T06:19:48.000Z,1.4
2023-03-03T06:21:04.000Z,1.5
2023-03-03T06:22:20.000Z,1.3
2023-03-03T06:23:37.000Z,1.4
2023-03-03T06:24:53.000Z,1.4
2023-03-03T06:26:09.000Z,1.3
2023-03-03T06:27:25.000Z,1.3
2023-03-03T06:28:40.000Z,1.3
2023-03-03T06:29:56.000Z,1.3
2023-03-03T06:31:12.000Z,1.3
2023-03-03T06:32:28.000Z,1.3
2023-03-03T06:33:44.000Z,1.2
2023-03-03T06:35:00.000Z,1.2
2023-03-03T06:36:17.000Z,1.3
2023-03-03T06:37:33.000Z,1.4
2023-03-03T06:38:49.000Z,1.5
2023-03-03T06:40:05.000Z,1.5
2023-03-03T06:41:21.000Z,1.6
2023-03-03T06:42:37.000Z,1.5
2023-03-03T06:43:54.000Z,1.4
2023-03-03T06:45:10.000Z,1.5
2023-03-03T06:46:25.000Z,1.7
2023-03-03T06:47:41.000Z,1.8
2023-03-03T06:48:57.000Z,1.9
2023-03-03T06:50:14.000Z,2
2023-03-03T06:51:30.000Z,1.8
2023-03-03T06:52:46.000Z,1.7
2023-03-03T06:54:02.000Z,1.8
2023-03-03T06:55:17.000Z,1.8
2023-03-03T06:56:33.000Z,2.1
2023-03-03T06:57:48.000Z,2.2
2023-03-03T06:59:03.000Z,2.2
2023-03-03T07:00:18.000Z,2.1
2023-03-03T07:01:33.000Z,2.1
2023-03-03T07:02:50.000Z,2.2
2023-03-03T07:04:06.000Z,2.4
2023-03-03T07:05:22.000Z,2.3
2023-03-03T07:06:38.000Z,2.4
2023-03-03T07:07:54.000Z,2.2
2023-03-03T07:09:11.000Z,2.1
2023-03-03T07:10:27.000Z,2.1
2023-03-03T07:11:43.000Z,2.2
2023-03-03T07:12:59.000Z,2.3
2023-03-03T07:14:15.000Z,2.2
2023-03-03T07:15:32.000Z,2.3
2023-03-03T07:16:48.000Z,2.2
2023-03-03T07:18:03.000Z,2.3
2023-03-03T07:19:19.000Z,2.3
2023-03-03T07:20:35.000Z,2.2
2023-03-03T07:21:52.000Z,2.1
2023-03-03T07:23:08.000Z,2.5
2023-03-03T07:24:24.000Z,2.4
2023-03-03T07:25:40.000Z,2.6
2023-03-03T07:26:55.000Z,2.4
2023-03-03T07:28:11.000Z,2.4
2023-03-03T07:29:27.000Z,2.4
2023-03-03T07:30:43.000Z,2.3
2023-03-03T07:31:58.000Z,2.3
2023-03-03T07:33:13.000Z,2.3
2023-03-03T07:34:30.000Z,2.4
2023-03-03T07:35:46.000Z,2.6
2023-03-03T07:37:02.000Z,2.6
2023-03-03T07:38:18.000Z,2.5
2023-03-03T07:39:34.000Z,2.3
2023-03-03T07:40:51.000Z,2.4
2023-03-03T07:42:07.000Z,2.3
2023-03-03T07:43:23.000Z,2.4
2023-03-03T07:44:39.000Z,2.7
2023-03-03T07:45:55.000Z,2.7
2023-03-03T07:47:11.000Z,2.7
2023-03-03T07:48:28.000Z,2.9
2023-03-03T07:49:43.000Z,3.1
2023-03-03T07:50:59.000Z,3.1
2023-03-03T07:52:15.000Z,3.1
2023-03-03T07:53:31.000Z,3
2023-03-03T07:54:48.000Z,3
2023-03-03T07:56:04.000Z,2.8
2023-03-03T07:57:20.000Z,3
2023-03-03T07:58:35.000Z,2.8
2023-03-03T07:59:50.000Z,2.8
2023-03-03T08:01:07.000Z,2.6
2023-03-03T08:02:22.000Z,2.7
2023-03-03T08:03:37.000Z,2.6
2023-03-03T08:04:53.000Z,2.5
2023-03-03T08:06:09.000Z,2.4
2023-03-03T08:07:26.000Z,2.5
2023-03-03T08:08:42.000Z,2.5
2023-03-03T08:09:58.000Z,2.5
2023-03-03T08:11:14.000Z,2.6
2023-03-03T08:12:30.000Z,2.6
2023-03-03T08:13:47.000Z,2.7
2023-03-03T08:15:03.000Z,2.8
2023-03-03T08:16:19.000Z,2.9
2023-03-03T08:17:35.000Z,2.9
2023-03-03T08:18:51.000Z,2.7
2023-03-03T08:20:07.000Z,2.6
2023-03-03T08:21:23.000Z,2.6
2023-03-03T08:22:39.000Z,2.5
2023-03-03T08:23:55.000Z,2.6
2023-03-03T08:25:11.000Z,2.8
2023-03-03T08:26:27.000Z,3
2023-03-03T08:27:44.000Z,2.8
2023-03-03T08:28:59.000Z,2.8
2023-03-03T08:30:14.000Z,3
2023-03-03T08:31:30.000Z,3.2
2023-03-03T08:32:46.000Z,3
2023-03-03T08:34:03.000Z,3.1
2023-03-03T08:35:19.000Z,3.2
2023-03-03T08:36:35.000Z,3
2023-03-03T08:37:51.000Z,3
2023-03-03T08:39:07.000Z,2.9
2023-03-03T08:40:24.000Z,3.1
2023-03-03T08:41:40.000Z,3.3
2023-03-03T08:42:56.000Z,3.1
2023-03-03T08:44:12.000Z,3.2
2023-03-03T08:45:28.000Z,2.9
2023-03-03T08:46:44.000Z,2.8
2023-03-03T08:48:00.000Z,3
2023-03-03T08:49:16.000Z,3.4
2023-03-03T08:50:32.000Z,3.5
2023-03-03T08:51:48.000Z,3.3
2023-03-03T08:53:05.000Z,3.3
2023-03-03T08:54:21.000Z,3.1
2023-03-03T08:55:36.000Z,3.3
2023-03-03T08:56:51.000Z,3.3
2023-03-03T08:58:06.000Z,3.2
2023-03-03T08:59:22.000Z,3.3
2023-03-03T09:00:38.000Z,3.5
2023-03-03T09:01:54.000Z,3.9
2023-03-03T09:03:10.000Z,4
2023-03-03T09:04:26.000Z,4.1
2023-03-03T09:05:43.000Z,4.3
2023-03-03T09:06:59.000Z,4.4
2023-03-03T09:08:15.000Z,4
2023-03-03T09:09:31.000Z,3.8
2023-03-03T09:10:47.000Z,3.9
2023-03-03T09:12:04.000Z,3.8
2023-03-03T09:13:20.000Z,3.9
2023-03-03T09:14:36.000Z,3.9
2023-03-03T09:15:51.000Z,4.3
2023-03-03T09:17:07.000Z,4.7
2023-03-03T09:18:23.000Z,4.8
2023-03-03T09:19:40.000Z,4.5
2023-03-03T09:20:56.000Z,4.6
2023-03-03T09:22:12.000Z,4.9
2023-03-03T09:23:28.000Z,5.1
2023-03-03T09:24:43.000Z,5
2023-03-03T09:25:59.000Z,5.1
2023-03-03T09:27:15.000Z,5
2023-03-03T09:28:31.000Z,4.3
2023-03-03T09:29:47.000Z,4.1
2023-03-03T09:31:03.000Z,3.9
2023-03-03T09:32:20.000Z,4.1
2023-03-03T09:33:36.000Z,4.4
2023-03-03T09:34:52.000Z,4.5
2023-03-03T09:36:08.000Z,4.3
2023-03-03T09:37:24.000Z,4.5
2023-03-03T09:38:41.000Z,4.8
2023-03-03T09:39:57.000Z,5.1
2023-03-03T09:41:13.000Z,5.2
2023-03-03T09:42:28.000Z,4.8
2023-03-03T09:43:44.000Z,5
2023-03-03T09:45:01.000Z,5.3
2023-03-03T09:46:17.000Z,5.6
2023-03-03T09:47:33.000Z,5.9
2023-03-03T09:48:49.000Z,5.9
2023-03-03T09:50:05.000Z,6.2
2023-03-03T09:51:21.000Z,6.4
2023-03-03T09:52:36.000Z,6.5
2023-03-03T09:53:51.000Z,6.6
2023-03-03T09:55:06.000Z,6.7
2023-03-03T09:56:21.000Z,6.9
2023-03-03T09:57:37.000Z,6.7
2023-03-03T09:58:53.000Z,6.8
2023-03-03T10:00:09.000Z,6.8
2023-03-03T10:01:25.000Z,6.5
2023-03-03T10:02:41.000Z,6.7
2023-03-03T10:03:58.000Z,6.8
2023-03-03T10:05:14.000Z,6.9
2023-03-03T10:06:30.000Z,6.8
2023-03-03T10:07:46.000Z,7
2023-03-03T10:09:02.000Z,7
2023-03-03T10:10:18.000Z,6.4
2023-03-03T10:11:35.000Z,6.5
2023-03-03T10:12:51.000Z,6.8
2023-03-03T10:14:06.000Z,6.9
2023-03-03T10:15:22.000Z,6.7
2023-03-03T10:16:38.000Z,6.2
2023-03-03T10:17:55.000Z,5.9
2023-03-03T10:19:11.000Z,5.8
2023-03-03T10:20:27.000Z,5.5
2023-03-03T10:21:43.000Z,5.5
2023-03-03T10:22:58.000Z,5.7
2023-03-03T10:24:14.000Z,6.1
2023-03-03T10:25:30.000Z,6.3
2023-03-03T10:26:46.000Z,6.6
2023-03-03T10:28:01.000Z,6.6
2023-03-03T10:29:16.000Z,6.5
2023-03-03T10:30:33.000Z,6
2023-03-03T10:31:49.000Z,5.9
2023-03-03T10:33:05.000Z,6.1
2023-03-03T10:34:21.000Z,6
2023-03-03T10:35:37.000Z,5.7
2023-03-03T10:36:54.000Z,5.7
2023-03-03T10:38:10.000Z,5.3
2023-03-03T10:39:26.000Z,5.2
2023-03-03T10:40:42.000Z,5.3
2023-03-03T10:41:58.000Z,5.6
2023-03-03T10:43:15.000Z,5.9
2023-03-03T10:44:31.000Z,6.1
2023-03-03T10:45:46.000Z,6.3
2023-03-03T10:47:02.000Z,6
2023-03-03T10:48:18.000Z,5.8
2023-03-03T10:49:35.000Z,5.3
2023-03-03T10:50:51.000Z,5.1
2023-03-03T10:52:07.000Z,5.5
2023-03-03T10:53:23.000Z,5.3
2023-03-03T10:54:38.000Z,5.2
2023-03-03T10:55:54.000Z,5.2
2023-03-03T10:57:10.000Z,5.3
2023-03-03T10:58:26.000Z,4.9
2023-03-03T10:59:42.000Z,4.8
2023-03-03T11:00:58.000Z,5
2023-03-03T11:02:14.000Z,5.2
2023-03-03T11:03:31.000Z,5.3
2023-03-03T11:04:47.000Z,5.3
2023-03-03T11:06:03.000Z,5.4
2023-03-03T11:07:19.000Z,5.5
2023-03-03T11:08:35.000Z,5.8
2023-03-03T11:09:52.000Z,6.2
2023-03-03T11:11:08.000Z,6.6
2023-03-03T11:12:23.000Z,6.9
2023-03-03T11:13:39.000Z,7.2
2023-03-03T11:14:55.000Z,7.6
2023-03-03T11:16:12.000Z,7.5
2023-03-03T11:17:28.000Z,7.2
2023-03-03T11:18:44.000Z,7.2
2023-03-03T11:20:00.000Z,6.7
2023-03-03T11:21:15.000Z,6.5
2023-03-03T11:22:31.000Z,6.3
2023-03-03T11:23:47.000Z,6
2023-03-03T11:25:03.000Z,5.4
2023-03-03T11:26:19.000Z,5.5
2023-03-03T11:27:35.000Z,5.7
2023-03-03T11:28:52.000Z,5.9
2023-03-03T11:30:08.000Z,6
2023-03-03T11:31:24.000Z,6
2023-03-03T11:32:40.000Z,6.4
2023-03-03T11:33:56.000Z,6.6
2023-03-03T11:35:12.000Z,6.9
2023-03-03T11:36:29.000Z,6.9
2023-03-03T11:37:45.000Z,7.1
2023-03-03T11:39:00.000Z,6.4
2023-03-03T11:40:16.000Z,6
2023-03-03T11:41:32.000Z,6.3
2023-03-03T11:42:49.000Z,6.7
2023-03-03T11:44:05.000Z,6.8
2023-03-03T11:45:21.000Z,6.7
2023-03-03T11:46:37.000Z,6.2
2023-03-03T11:47:52.000Z,5.9
2023-03-03T11:49:08.000Z,5.9
2023-03-03T11:50:23.000Z,6.3
2023-03-03T11:51:38.000Z,6.7
2023-03-03T11:52:53.000Z,7.2
2023-03-03T11:54:08.000Z,7.3
2023-03-03T11:55:25.000Z,7.2
2023-03-03T11:56:41.000Z,6.9
2023-03-03T11:57:56.000Z,6.9
2023-03-03T11:59:11.000Z,6.9
2023-03-03T12:00:27.000Z,6.8
2023-03-03T12:01:44.000Z,6.9
2023-03-03T12:03:00.000Z,7.1
2023-03-03T12:04:16.000Z,7
2023-03-03T12:05:32.000Z,7
2023-03-03T12:06:48.000Z,7.2
2023-03-03T12:08:05.000Z,7.2
2023-03-03T12:09:21.000Z,7.3
2023-03-03T12:10:37.000Z,7.3
2023-03-03T12:11:53.000Z,7.2
2023-03-03T12:13:09.000Z,7.6
2023-03-03T12:14:26.000Z,7.9
2023-03-03T12:15:41.000Z,8.1
2023-03-03T12:16:57.000Z,8.3
2023-03-03T12:18:13.000Z,8.8
2023-03-03T12:19:29.000Z,8.9
2023-03-03T12:20:46.000Z,9.2
2023-03-03T12:22:02.000Z,9.6
2023-03-03T12:23:18.000Z,9.7
2023-03-03T12:24:33.000Z,9.8
2023-03-03T12:25:48.000Z,9.9
2023-03-03T12:27:05.000Z,9.7
2023-03-03T12:28:20.000Z,9.2
2023-03-03T12:29:35.000Z,9.4
2023-03-03T12:30:51.000Z,10.8
2023-03-03T12:32:07.000Z,12
2023-03-03T12:33:24.000Z,13.1
2023-03-03T12:34:40.000Z,14
2023-03-03T12:35:56.000Z,14
2023-03-03T12:37:12.000Z,14
2023-03-03T12:38:28.000Z,14
2023-03-03T12:39:44.000Z,13.7
2023-03-03T12:41:01.000Z,13.8
2023-03-03T12:42:17.000Z,14.2
2023-03-03T12:43:33.000Z,13.8
2023-03-03T12:44:49.000Z,13.6
2023-03-03T12:46:04.000Z,12
2023-03-03T12:47:21.000Z,11.5
2023-03-03T12:48:37.000Z,11
2023-03-03T12:49:53.000Z,9.9
2023-03-03T12:51:09.000Z,10.2
2023-03-03T12:52:25.000Z,9.9
2023-03-03T12:53:42.000Z,10.8
2023-03-03T12:54:57.000Z,11.2
2023-03-03T12:56:12.000Z,11.6
2023-03-03T12:57:28.000Z,12.5
2023-03-03T12:58:44.000Z,12.5
2023-03-03T13:00:01.000Z,12.2
2023-03-03T13:01:17.000Z,11.3
2023-03-03T13:02:33.000Z,10.1
2023-03-03T13:03:49.000Z,10.1
2023-03-03T13:05:05.000Z,9.7
2023-03-03T13:06:22.000Z,9
2023-03-03T13:07:38.000Z,8.2
2023-03-03T13:08:54.000Z,8.8
2023-03-03T13:10:10.000Z,9.4
2023-03-03T13:11:26.000Z,10.2
2023-03-03T13:12:42.000Z,9.8
2023-03-03T13:13:58.000Z,10.4
2023-03-03T13:15:14.000Z,10.3
2023-03-03T13:16:30.000Z,11.1
2023-03-03T13:17:46.000Z,12
2023-03-03T13:19:02.000Z,11.8
2023-03-03T13:20:19.000Z,11.2
2023-03-03T13:21:34.000Z,10.9
2023-03-03T13:22:49.000Z,11
2023-03-03T13:24:04.000Z,10.4
2023-03-03T13:25:19.000Z,10.8
2023-03-03T13:26:36.000Z,11.6
2023-03-03T13:27:52.000Z,11
2023-03-03T13:29:08.000Z,11.5
2023-03-03T13:30:24.000Z,12.1
2023-03-03T13:31:40.000Z,12.9
2023-03-03T13:32:57.000Z,12.9
2023-03-03T13:34:13.000Z,13.3
2023-03-03T13:35:29.000Z,12.1
2023-03-03T13:36:45.000Z,11.6
2023-03-03T13:38:01.000Z,11.2
2023-03-03T13:39:18.000Z,11.4
2023-03-03T13:40:34.000Z,12
2023-03-03T13:41:49.000Z,12.3
2023-03-03T13:43:05.000Z,12.8
2023-03-03T13:44:21.000Z,10.9
2023-03-03T13:45:38.000Z,10.2
2023-03-03T13:46:54.000Z,11.2
2023-03-03T13:48:10.000Z,12
2023-03-03T13:49:26.000Z,13
2023-03-03T13:50:41.000Z,12.8
2023-03-03T13:51:57.000Z,11.9
2023-03-03T13:53:13.000Z,12.3
2023-03-03T13:54:29.000Z,11.6
2023-03-03T13:55:45.000Z,10.6
2023-03-03T13:57:01.000Z,10.9
2023-03-03T13:58:17.000Z,11.4
2023-03-03T13:59:34.000Z,11.7
2023-03-03T14:00:50.000Z,12.2
2023-03-03T14:02:06.000Z,12.9
2023-03-03T14:03:22.000Z,13.3
2023-03-03T14:04:38.000Z,13.8
2023-03-03T14:05:54.000Z,13.9
2023-03-03T14:07:10.000Z,13.4
2023-03-03T14:08:26.000Z,13.2
2023-03-03T14:09:42.000Z,13
2023-03-03T14:10:58.000Z,12.9
2023-03-03T14:12:15.000Z,13.2
2023-03-03T14:13:31.000Z,12.8
2023-03-03T14:14:47.000Z,12.7
2023-03-03T14:16:03.000Z,12.7
2023-03-03T14:17:18.000Z,12.6
2023-03-03T14:18:34.000Z,12.7
2023-03-03T14:19:50.000Z,13.1
2023-03-03T14:21:06.000Z,12.6
2023-03-03T14:22:22.000Z,12.6
2023-03-03T14:23:38.000Z,13
2023-03-03T14:24:55.000Z,13.3
2023-03-03T14:26:11.000Z,13.5
2023-03-03T14:27:27.000Z,13.8
2023-03-03T14:28:43.000Z,13.6
2023-03-03T14:29:59.000Z,13.4
2023-03-03T14:31:15.000Z,13.4
2023-03-03T14:32:32.000Z,13.4
2023-03-03T14:33:48.000Z,12.9
2023-03-03T14:35:03.000Z,13.1
2023-03-03T14:36:19.000Z,13.5
2023-03-03T14:37:35.000Z,13.8
2023-03-03T14:38:52.000Z,14
2023-03-03T14:40:08.000Z,13.9
2023-03-03T14:41:24.000Z,14
2023-03-03T14:42:40.000Z,14.2
2023-03-03T14:43:56.000Z,14
2023-03-03T14:45:13.000Z,13.6
2023-03-03T14:46:29.000Z,13.5
2023-03-03T14:47:45.000Z,13.2
2023-03-03T14:49:01.000Z,13.5
2023-03-03T14:50:17.000Z,13.7
2023-03-03T14:51:33.000Z,13.3
2023-03-03T14:52:49.000Z,13
2023-03-03T14:54:05.000Z,13
2023-03-03T14:55:21.000Z,13.2
2023-03-03T14:56:37.000Z,13.1
2023-03-03T14:57:54.000Z,13.1
2023-03-03T14:59:10.000Z,12.9
2023-03-03T15:00:26.000Z,12.8
2023-03-03T15:01:42.000Z,13.1
2023-03-03T15:02:58.000Z,13.4
2023-03-03T15:04:14.000Z,13.7
2023-03-03T15:05:31.000Z,13.8
2023-03-03T15:06:47.000Z,14
2023-03-03T15:08:02.000Z,14
2023-03-03T15:09:18.000Z,13.9
2023-03-03T15:10:34.000Z,14.1
2023-03-03T15:11:51.119Z,13.8
2023-03-03T15:13:07.000Z,13.3
2023-03-03T15:14:23.000Z,13.1
2023-03-03T15:15:39.000Z,12.7
2023-03-03T15:16:55.000Z,13.1
2023-03-03T15:18:12.000Z,13.2
2023-03-03T15:19:28.000Z,13.8
2023-03-03T15:20:44.000Z,13.8
2023-03-03T15:22:00.000Z,13.9
2023-03-03T15:23:16.000Z,13.9
2023-03-03T15:24:32.000Z,13.5
2023-03-03T15:25:48.000Z,13.4
2023-03-03T15:27:04.000Z,13.5
2023-03-03T15:28:20.000Z,13.3
2023-03-03T15:29:36.000Z,13.2
2023-03-03T15:30:52.000Z,13.6
2023-03-03T15:32:09.000Z,13.9
2023-03-03T15:33:25.000Z,14
2023-03-03T15:34:41.000Z,14.4
2023-03-03T15:35:57.000Z,14.8
2023-03-03T15:37:13.000Z,14.6
2023-03-03T15:38:30.000Z,13.7
2023-03-03T15:39:46.000Z,13.1
2023-03-03T15:41:02.000Z,13.1
2023-03-03T15:42:17.000Z,12.9
2023-03-03T15:43:33.000Z,12.3
2023-03-03T15:44:50.000Z,12.3
2023-03-03T15:46:06.000Z,12
2023-03-03T15:47:22.000Z,12
2023-03-03T15:48:38.000Z,11.7
2023-03-03T15:49:54.000Z,12.1
2023-03-03T15:51:11.000Z,12
2023-03-03T15:52:27.000Z,12.2
2023-03-03T15:53:43.000Z,12.5
2023-03-03T15:54:59.000Z,12.7
2023-03-03T15:56:15.000Z,12.9
2023-03-03T15:57:31.000Z,13.1
2023-03-03T15:58:47.000Z,13.4
2023-03-03T16:00:03.000Z,13.5
2023-03-03T16:01:19.000Z,12.7
2023-03-03T16:02:35.000Z,12
2023-03-03T16:03:51.000Z,12
2023-03-03T16:05:08.000Z,12.1
2023-03-03T16:06:24.000Z,12.5
2023-03-03T16:07:40.000Z,12.7
2023-03-03T16:08:56.000Z,12
2023-03-03T16:10:12.000Z,11.1
2023-03-03T16:11:29.000Z,10.4
2023-03-03T16:12:45.000Z,10.1
2023-03-03T16:14:01.000Z,9.8
2023-03-03T16:15:16.000Z,10
2023-03-03T16:16:32.000Z,9.7
2023-03-03T16:17:49.000Z,9.3
2023-03-03T16:19:05.000Z,9.2
2023-03-03T16:20:21.000Z,9.5
2023-03-03T16:21:37.000Z,9.8
2023-03-03T16:22:53.000Z,9.9
2023-03-03T16:24:09.000Z,9.9
2023-03-03T16:25:26.000Z,9.8
2023-03-03T16:26:42.000Z,9.5
2023-03-03T16:27:58.000Z,9.1
2023-03-03T16:29:14.000Z,8.9
2023-03-03T16:30:30.000Z,8.7
2023-03-03T16:31:46.000Z,8.8
2023-03-03T16:33:02.000Z,8.7
2023-03-03T16:34:18.000Z,8.8
2023-03-03T16:35:34.000Z,9
2023-03-03T16:36:50.000Z,8.9
2023-03-03T16:38:07.000Z,9
2023-03-03T16:39:23.000Z,9
2023-03-03T16:40:39.000Z,9
2023-03-03T16:41:55.000Z,8.8
2023-03-03T16:43:11.000Z,8.8
2023-03-03T16:44:28.000Z,8.7
2023-03-03T16:45:44.000Z,8.5
2023-03-03T16:47:00.000Z,8.2
2023-03-03T16:48:15.000Z,8.2
2023-03-03T16:49:31.000Z,8
2023-03-03T16:50:47.000Z,8.1
2023-03-03T16:52:04.000Z,8
2023-03-03T16:53:20.000Z,8
2023-03-03T16:54:36.000Z,7.8
2023-03-03T16:55:52.000Z,7.7
2023-03-03T16:57:08.000Z,7.9
2023-03-03T16:58:25.000Z,8
2023-03-03T16:59:41.000Z,8.2
2023-03-03T17:00:57.000Z,8.2
2023-03-03T17:02:13.000Z,8.1
2023-03-03T17:03:29.000Z,8
2023-03-03T17:04:45.000Z,7.9
2023-03-03T17:06:01.000Z,8
2023-03-03T17:07:17.000Z,8
2023-03-03T17:08:33.000Z,8
2023-03-03T17:09:49.000Z,8
2023-03-03T17:11:06.000Z,8.2
2023-03-03T17:12:22.000Z,8.1
2023-03-03T17:13:38.000Z,8
2023-03-03T17:14:54.000Z,8
2023-03-03T17:16:10.000Z,8.1
2023-03-03T17:17:26.000Z,8.2
2023-03-03T17:18:43.000Z,8.3
2023-03-03T17:19:59.000Z,8.2
2023-03-03T17:21:14.000Z,8.2
2023-03-03T17:22:30.000Z,8.2
2023-03-03T17:23:46.000Z,8
2023-03-03T17:25:03.000Z,8.1
2023-03-03T17:26:19.000Z,8.3
2023-03-03T17:27:35.000Z,8.2
2023-03-03T17:28:51.000Z,8.2
2023-03-03T17:30:07.000Z,8.1
2023-03-03T17:31:24.000Z,8.3
2023-03-03T17:32:40.000Z,8.4
2023-03-03T17:33:56.000Z,8.4
2023-03-03T17:35:12.000Z,8.2
2023-03-03T17:36:28.000Z,8.2
2023-03-03T17:37:44.000Z,8.2
2023-03-03T17:39:00.000Z,8.2
2023-03-03T17:40:16.000Z,8.3
2023-03-03T17:41:32.000Z,8.3
2023-03-03T17:42:48.000Z,8.3
2023-03-03T17:44:04.000Z,8.4
2023-03-03T17:45:21.000Z,8.5
2023-03-03T17:46:37.000Z,8.6
2023-03-03T17:47:53.000Z,8.6
2023-03-03T17:49:09.000Z,8.5
2023-03-03T17:50:25.000Z,8.4
2023-03-03T17:51:42.000Z,8.4
2023-03-03T17:52:58.000Z,8.4
2023-03-03T17:54:13.000Z,8.4
2023-03-03T17:55:29.000Z,8.3
2023-03-03T17:56:45.000Z,8.3
2023-03-03T17:58:02.000Z,8.3
2023-03-03T17:59:18.000Z,8.4
2023-03-03T18:00:34.000Z,8.4
2023-03-03T18:01:50.000Z,8.4
2023-03-03T18:03:06.000Z,8.4
2023-03-03T18:04:23.000Z,8.3
2023-03-03T18:05:39.000Z,8.4
2023-03-03T18:06:55.000Z,8.4
2023-03-03T18:08:11.000Z,8.4